Warning: Javascript must be enabled to use all the features on this page!


Page Loading - Please Wait...

* We've detected you're using a mobile device. Find our Next Generation Station Page here.
Click to hideNews Bulletins

Peak Streamflow for the Nation

USGS 0344894205 NORTH FORK SWANNANOA RIVER NEAR WALKERTOWN, NC

Buncombe County, North Carolina
Hydrologic Unit Code 06010105
Latitude  35°41'07", Longitude  82°19'58" NAD83
Drainage area 14.5  square miles
Gage datum 2,650 feet above NGVD29
Output formats
Table
Graph
Tab-separated file
peakfq (watstore) format
Reselect output format
Water
Year
Date Gage
Height
(feet)
Stream-
flow
(cfs)
1989 1989-09-22 7.57 2,630
1990 1990-03-17 6.31 1,410
1991 1991-03-29 5.89 1,090
1992 1992-08-28 5.81 1,040
1993 1993-05-07 6.37 1,460
1994 1994-08-17 8.10 3,280
1995 1995-01-14 8.19 3,400
1996 1995-10-05 7.23 2,260
1997 1996-12-01 6.20 1,320
1998 1998-01-07 7.56 2,620
1999 1999-05-18 5.25 721
2000 1999-11-02 5.79 1,020
2001 2001-01-19 5.23 709
2002 2002-09-27 5.14 657
2003 2003-04-18 5.63 979
2004 2004-09-08 10.33 7,0009
2005 2005-07-15 5.46 1,080
2006 2006-08-31 4.30 498
2007 2007-01-01 4.54 666
2008 2008-03-04 4.44 608
2009 2008-12-11 5.36 1,200
2010 2010-01-24 5.12 1,050
2011 2010-11-30 5.30 1,160
2012 2012-09-18 5.02 992
2013 2013-05-06 6.24 1,830
2014 2014-01-11 4.31 632
2015 2014-10-14 6.71 2,240
2016 2015-12-02 5.86 1,540
2017 2017-09-12 4.69 814
2018 2018-05-29 10.60 8,3802
2019 2018-10-11 5.81 2,280
2020 2020-09-12 4.96 1,500
2021 2021-08-17   8,3802
?
  Peak Streamflow Qualification Codes.